sensor_id;sensor_type;location;lat;lon;timestamp;temperature;humidity
10149;DHT22;5115;50.920;6.376;2024-03-25T00:01:43;7.40;99.90
10149;DHT22;5115;50.920;6.376;2024-03-25T00:04:09;7.40;99.90
10149;DHT22;5115;50.920;6.376;2024-03-25T00:06:34;7.40;99.90
10149;DHT22;5115;50.920;6.376;2024-03-25T00:09:01;7.50;99.90
10149;DHT22;5115;50.920;6.376;2024-03-25T00:11:27;7.40;99.90
10149;DHT22;5115;50.920;6.376;2024-03-25T00:13:53;7.50;99.90
10149;DHT22;5115;50.920;6.376;2024-03-25T00:16:18;7.50;99.90
10149;DHT22;5115;50.920;6.376;2024-03-25T00:18:44;7.50;99.90
10149;DHT22;5115;50.920;6.376;2024-03-25T00:21:09;7.50;99.90
10149;DHT22;5115;50.920;6.376;2024-03-25T00:23:35;7.50;99.90
10149;DHT22;5115;50.920;6.376;2024-03-25T00:26:00;7.40;99.90
10149;DHT22;5115;50.920;6.376;2024-03-25T00:28:26;7.30;99.90
10149;DHT22;5115;50.920;6.376;2024-03-25T00:30:51;7.40;99.90
10149;DHT22;5115;50.920;6.376;2024-03-25T00:33:17;7.40;99.90
10149;DHT22;5115;50.920;6.376;2024-03-25T00:35:43;7.30;99.90
10149;DHT22;5115;50.920;6.376;2024-03-25T00:38:11;7.30;99.90
10149;DHT22;5115;50.920;6.376;2024-03-25T00:40:36;7.20;99.90
10149;DHT22;5115;50.920;6.376;2024-03-25T00:43:02;7.20;99.90
10149;DHT22;5115;50.920;6.376;2024-03-25T00:45:28;7.20;99.90
10149;DHT22;5115;50.920;6.376;2024-03-25T00:47:56;7.20;99.90
10149;DHT22;5115;50.920;6.376;2024-03-25T00:50:22;7.20;99.90
10149;DHT22;5115;50.920;6.376;2024-03-25T00:52:47;7.10;99.90
10149;DHT22;5115;50.920;6.376;2024-03-25T00:55:13;7.10;99.90
10149;DHT22;5115;50.920;6.376;2024-03-25T00:57:39;7.10;99.90
10149;DHT22;5115;50.920;6.376;2024-03-25T01:00:05;7.00;99.90
10149;DHT22;5115;50.920;6.376;2024-03-25T01:02:31;7.00;99.90
10149;DHT22;5115;50.920;6.376;2024-03-25T01:04:57;7.00;99.90
10149;DHT22;5115;50.920;6.376;2024-03-25T01:07:25;6.90;99.90
10149;DHT22;5115;50.920;6.376;2024-03-25T01:09:50;6.90;99.90
10149;DHT22;5115;50.920;6.376;2024-03-25T01:12:16;6.90;99.90
10149;DHT22;5115;50.920;6.376;2024-03-25T01:14:41;6.90;99.90
10149;DHT22;5115;50.920;6.376;2024-03-25T01:17:07;6.80;99.90
10149;DHT22;5115;50.920;6.376;2024-03-25T01:19:32;6.80;99.90
10149;DHT22;5115;50.920;6.376;2024-03-25T01:21:58;6.80;99.90
10149;DHT22;5115;50.920;6.376;2024-03-25T01:24:24;6.80;99.90
10149;DHT22;5115;50.920;6.376;2024-03-25T01:26:50;6.90;99.90
10149;DHT22;5115;50.920;6.376;2024-03-25T01:29:16;6.70;99.90
10149;DHT22;5115;50.920;6.376;2024-03-25T01:31:42;6.70;99.90
10149;DHT22;5115;50.920;6.376;2024-03-25T01:34:08;6.70;99.90
10149;DHT22;5115;50.920;6.376;2024-03-25T01:36:33;6.60;99.90
10149;DHT22;5115;50.920;6.376;2024-03-25T01:39:00;6.60;99.90
10149;DHT22;5115;50.920;6.376;2024-03-25T01:41:26;6.60;99.90
10149;DHT22;5115;50.920;6.376;2024-03-25T01:43:52;6.50;99.90
10149;DHT22;5115;50.920;6.376;2024-03-25T01:46:18;6.50;99.90
10149;DHT22;5115;50.920;6.376;2024-03-25T01:48:48;6.40;99.90
10149;DHT22;5115;50.920;6.376;2024-03-25T01:51:16;6.40;99.90
10149;DHT22;5115;50.920;6.376;2024-03-25T01:53:43;6.30;99.90
10149;DHT22;5115;50.920;6.376;2024-03-25T01:56:10;6.40;99.90
10149;DHT22;5115;50.920;6.376;2024-03-25T01:58:38;6.30;99.90
10149;DHT22;5115;50.920;6.376;2024-03-25T02:01:04;6.30;99.90
10149;DHT22;5115;50.920;6.376;2024-03-25T02:03:30;6.30;99.90
10149;DHT22;5115;50.920;6.376;2024-03-25T02:06:03;6.30;99.90
10149;DHT22;5115;50.920;6.376;2024-03-25T02:08:31;6.30;99.90
10149;DHT22;5115;50.920;6.376;2024-03-25T02:10:58;6.30;99.90
10149;DHT22;5115;50.920;6.376;2024-03-25T02:13:25;6.40;99.90
10149;DHT22;5115;50.920;6.376;2024-03-25T02:15:50;6.40;99.90
10149;DHT22;5115;50.920;6.376;2024-03-25T02:18:19;6.40;99.90
10149;DHT22;5115;50.920;6.376;2024-03-25T02:20:45;6.40;99.90
10149;DHT22;5115;50.920;6.376;2024-03-25T02:23:11;6.30;99.90
10149;DHT22;5115;50.920;6.376;2024-03-25T02:25:38;6.30;99.90
10149;DHT22;5115;50.920;6.376;2024-03-25T02:28:04;6.40;99.90
10149;DHT22;5115;50.920;6.376;2024-03-25T02:30:30;6.40;99.90
10149;DHT22;5115;50.920;6.376;2024-03-25T02:32:55;6.40;99.90
10149;DHT22;5115;50.920;6.376;2024-03-25T02:35:22;6.30;99.90
10149;DHT22;5115;50.920;6.376;2024-03-25T02:37:50;6.30;99.90
10149;DHT22;5115;50.920;6.376;2024-03-25T02:40:16;6.30;99.90
10149;DHT22;5115;50.920;6.376;2024-03-25T02:42:42;6.30;99.90
10149;DHT22;5115;50.920;6.376;2024-03-25T02:45:08;6.30;99.90
10149;DHT22;5115;50.920;6.376;2024-03-25T02:47:34;6.30;99.90
10149;DHT22;5115;50.920;6.376;2024-03-25T02:49:59;6.30;99.90
10149;DHT22;5115;50.920;6.376;2024-03-25T02:52:25;6.30;99.90
10149;DHT22;5115;50.920;6.376;2024-03-25T02:54:51;6.20;99.90
10149;DHT22;5115;50.920;6.376;2024-03-25T02:57:16;6.20;99.90
10149;DHT22;5115;50.920;6.376;2024-03-25T02:59:42;6.20;99.90
10149;DHT22;5115;50.920;6.376;2024-03-25T03:02:07;6.20;99.90
10149;DHT22;5115;50.920;6.376;2024-03-25T03:04:33;6.20;99.90
10149;DHT22;5115;50.920;6.376;2024-03-25T03:06:58;6.30;99.90
10149;DHT22;5115;50.920;6.376;2024-03-25T03:09:24;6.20;99.90
10149;DHT22;5115;50.920;6.376;2024-03-25T03:11:50;6.20;99.90
10149;DHT22;5115;50.920;6.376;2024-03-25T03:14:15;6.20;99.90
10149;DHT22;5115;50.920;6.376;2024-03-25T03:16:41;6.20;99.90
10149;DHT22;5115;50.920;6.376;2024-03-25T03:19:06;6.10;99.90
10149;DHT22;5115;50.920;6.376;2024-03-25T03:21:32;6.10;99.90
10149;DHT22;5115;50.920;6.376;2024-03-25T03:23:57;7.00;99.90
10149;DHT22;5115;50.920;6.376;2024-03-25T03:26:23;6.10;99.90
10149;DHT22;5115;50.920;6.376;2024-03-25T03:28:53;6.10;99.90
10149;DHT22;5115;50.920;6.376;2024-03-25T03:31:19;6.00;99.90
10149;DHT22;5115;50.920;6.376;2024-03-25T03:33:49;6.00;99.90
10149;DHT22;5115;50.920;6.376;2024-03-25T03:36:19;6.00;99.90
10149;DHT22;5115;50.920;6.376;2024-03-25T03:38:45;6.00;99.90
10149;DHT22;5115;50.920;6.376;2024-03-25T03:41:11;5.90;99.90
10149;DHT22;5115;50.920;6.376;2024-03-25T03:43:36;5.90;99.90
10149;DHT22;5115;50.920;6.376;2024-03-25T03:46:02;5.90;99.90
10149;DHT22;5115;50.920;6.376;2024-03-25T03:48:28;5.90;99.90
10149;DHT22;5115;50.920;6.376;2024-03-25T03:50:54;5.80;99.90
10149;DHT22;5115;50.920;6.376;2024-03-25T03:53:19;5.80;99.90
10149;DHT22;5115;50.920;6.376;2024-03-25T03:55:55;5.80;99.90
10149;DHT22;5115;50.920;6.376;2024-03-25T03:58:21;5.70;99.90
10149;DHT22;5115;50.920;6.376;2024-03-25T04:00:47;5.70;99.90
10149;DHT22;5115;50.920;6.376;2024-03-25T04:03:13;5.60;99.90
10149;DHT22;5115;50.920;6.376;2024-03-25T04:05:38;5.50;99.90
10149;DHT22;5115;50.920;6.376;2024-03-25T04:08:04;5.50;99.90
10149;DHT22;5115;50.920;6.376;2024-03-25T04:10:30;5.50;99.90
10149;DHT22;5115;50.920;6.376;2024-03-25T04:12:56;5.60;99.90
10149;DHT22;5115;50.920;6.376;2024-03-25T04:15:22;5.60;99.90
10149;DHT22;5115;50.920;6.376;2024-03-25T04:17:47;5.60;99.90
10149;DHT22;5115;50.920;6.376;2024-03-25T04:20:15;5.60;99.90
10149;DHT22;5115;50.920;6.376;2024-03-25T04:22:42;5.60;99.90
10149;DHT22;5115;50.920;6.376;2024-03-25T04:25:11;5.60;99.90
10149;DHT22;5115;50.920;6.376;2024-03-25T04:27:41;5.50;99.90
10149;DHT22;5115;50.920;6.376;2024-03-25T04:30:07;5.40;99.90
10149;DHT22;5115;50.920;6.376;2024-03-25T04:32:34;5.40;99.90
10149;DHT22;5115;50.920;6.376;2024-03-25T04:35:00;5.40;99.90
10149;DHT22;5115;50.920;6.376;2024-03-25T04:37:26;5.40;99.90
10149;DHT22;5115;50.920;6.376;2024-03-25T04:39:53;5.40;99.90
10149;DHT22;5115;50.920;6.376;2024-03-25T04:42:19;5.40;99.90
10149;DHT22;5115;50.920;6.376;2024-03-25T04:44:44;5.40;99.90
10149;DHT22;5115;50.920;6.376;2024-03-25T04:47:10;5.40;99.90
10149;DHT22;5115;50.920;6.376;2024-03-25T04:49:35;5.40;99.90
10149;DHT22;5115;50.920;6.376;2024-03-25T04:52:01;6.10;99.90
10149;DHT22;5115;50.920;6.376;2024-03-25T04:54:28;5.20;99.90
10149;DHT22;5115;50.920;6.376;2024-03-25T04:56:53;5.00;99.90
10149;DHT22;5115;50.920;6.376;2024-03-25T04:59:19;4.90;99.90
10149;DHT22;5115;50.920;6.376;2024-03-25T05:01:44;4.80;99.90
10149;DHT22;5115;50.920;6.376;2024-03-25T05:04:10;4.80;99.90
10149;DHT22;5115;50.920;6.376;2024-03-25T05:06:35;4.70;99.90
10149;DHT22;5115;50.920;6.376;2024-03-25T05:09:01;4.60;99.90
10149;DHT22;5115;50.920;6.376;2024-03-25T05:11:27;4.60;99.90
10149;DHT22;5115;50.920;6.376;2024-03-25T05:13:53;4.60;99.90
10149;DHT22;5115;50.920;6.376;2024-03-25T05:16:18;4.50;99.90
10149;DHT22;5115;50.920;6.376;2024-03-25T05:18:44;3.60;99.90
10149;DHT22;5115;50.920;6.376;2024-03-25T05:21:09;4.50;99.90
10149;DHT22;5115;50.920;6.376;2024-03-25T05:23:35;4.50;99.90
10149;DHT22;5115;50.920;6.376;2024-03-25T05:26:00;4.50;99.90
10149;DHT22;5115;50.920;6.376;2024-03-25T05:28:26;4.40;99.90
10149;DHT22;5115;50.920;6.376;2024-03-25T05:30:51;4.40;99.90
10149;DHT22;5115;50.920;6.376;2024-03-25T05:33:17;4.40;99.90
10149;DHT22;5115;50.920;6.376;2024-03-25T05:35:42;4.40;99.90
10149;DHT22;5115;50.920;6.376;2024-03-25T05:38:08;4.40;99.90
10149;DHT22;5115;50.920;6.376;2024-03-25T05:40:33;4.50;99.90
10149;DHT22;5115;50.920;6.376;2024-03-25T05:42:59;4.50;99.90
10149;DHT22;5115;50.920;6.376;2024-03-25T05:45:25;4.50;99.90
10149;DHT22;5115;50.920;6.376;2024-03-25T05:47:50;4.40;99.90
10149;DHT22;5115;50.920;6.376;2024-03-25T05:50:16;4.40;99.90
10149;DHT22;5115;50.920;6.376;2024-03-25T05:52:42;4.30;99.90
10149;DHT22;5115;50.920;6.376;2024-03-25T05:55:08;4.20;99.90
10149;DHT22;5115;50.920;6.376;2024-03-25T05:57:36;4.20;99.90
10149;DHT22;5115;50.920;6.376;2024-03-25T06:00:02;4.30;99.90
10149;DHT22;5115;50.920;6.376;2024-03-25T06:02:28;4.40;99.90
10149;DHT22;5115;50.920;6.376;2024-03-25T06:04:53;4.60;99.90
10149;DHT22;5115;50.920;6.376;2024-03-25T06:07:19;4.70;99.90
10149;DHT22;5115;50.920;6.376;2024-03-25T06:09:44;4.80;99.90
10149;DHT22;5115;50.920;6.376;2024-03-25T06:12:10;4.90;99.90
10149;DHT22;5115;50.920;6.376;2024-03-25T06:14:35;5.00;99.90
10149;DHT22;5115;50.920;6.376;2024-03-25T06:17:02;5.00;99.90
10149;DHT22;5115;50.920;6.376;2024-03-25T06:19:28;5.00;99.90
10149;DHT22;5115;50.920;6.376;2024-03-25T06:21:53;4.90;99.90
10149;DHT22;5115;50.920;6.376;2024-03-25T06:24:19;4.90;99.90
10149;DHT22;5115;50.920;6.376;2024-03-25T06:26:44;5.10;99.90
10149;DHT22;5115;50.920;6.376;2024-03-25T06:29:10;5.30;99.90
10149;DHT22;5115;50.920;6.376;2024-03-25T06:31:36;5.50;99.90
10149;DHT22;5115;50.920;6.376;2024-03-25T06:34:20;5.70;99.90
10149;DHT22;5115;50.920;6.376;2024-03-25T06:36:48;6.10;99.90
10149;DHT22;5115;50.920;6.376;2024-03-25T06:39:14;6.30;99.90
10149;DHT22;5115;50.920;6.376;2024-03-25T06:41:40;6.80;99.90
10149;DHT22;5115;50.920;6.376;2024-03-25T06:44:06;6.50;99.90
10149;DHT22;5115;50.920;6.376;2024-03-25T06:46:32;6.80;99.90
10149;DHT22;5115;50.920;6.376;2024-03-25T06:48:58;7.00;99.90
10149;DHT22;5115;50.920;6.376;2024-03-25T06:51:24;7.20;99.90
10149;DHT22;5115;50.920;6.376;2024-03-25T06:53:49;7.40;99.90
10149;DHT22;5115;50.920;6.376;2024-03-25T06:56:15;7.70;99.90
10149;DHT22;5115;50.920;6.376;2024-03-25T06:58:41;7.90;99.90
10149;DHT22;5115;50.920;6.376;2024-03-25T07:01:10;8.20;99.90
10149;DHT22;5115;50.920;6.376;2024-03-25T07:03:38;8.40;99.90
10149;DHT22;5115;50.920;6.376;2024-03-25T07:06:05;8.40;99.90
10149;DHT22;5115;50.920;6.376;2024-03-25T07:08:31;8.30;99.90
10149;DHT22;5115;50.920;6.376;2024-03-25T07:10:57;8.30;99.90
10149;DHT22;5115;50.920;6.376;2024-03-25T07:13:23;8.10;99.90
10149;DHT22;5115;50.920;6.376;2024-03-25T07:15:48;8.00;99.90
10149;DHT22;5115;50.920;6.376;2024-03-25T07:18:14;8.20;99.90
10149;DHT22;5115;50.920;6.376;2024-03-25T07:20:40;8.60;99.90
10149;DHT22;5115;50.920;6.376;2024-03-25T07:23:06;9.10;99.90
10149;DHT22;5115;50.920;6.376;2024-03-25T07:25:31;9.60;99.90
10149;DHT22;5115;50.920;6.376;2024-03-25T07:27:57;10.10;99.90
10149;DHT22;5115;50.920;6.376;2024-03-25T07:30:23;10.90;99.90
10149;DHT22;5115;50.920;6.376;2024-03-25T07:32:55;11.50;99.90
10149;DHT22;5115;50.920;6.376;2024-03-25T07:35:21;12.30;99.90
10149;DHT22;5115;50.920;6.376;2024-03-25T07:37:46;12.60;99.90
10149;DHT22;5115;50.920;6.376;2024-03-25T07:40:12;12.70;99.90
10149;DHT22;5115;50.920;6.376;2024-03-25T07:42:38;12.40;99.90
10149;DHT22;5115;50.920;6.376;2024-03-25T07:45:04;11.80;99.90
10149;DHT22;5115;50.920;6.376;2024-03-25T07:47:31;11.50;99.90
10149;DHT22;5115;50.920;6.376;2024-03-25T07:49:57;11.30;99.90
10149;DHT22;5115;50.920;6.376;2024-03-25T07:52:24;11.10;99.90
10149;DHT22;5115;50.920;6.376;2024-03-25T07:54:50;10.70;99.90
10149;DHT22;5115;50.920;6.376;2024-03-25T07:57:16;10.80;99.90
10149;DHT22;5115;50.920;6.376;2024-03-25T07:59:42;11.40;99.90
10149;DHT22;5115;50.920;6.376;2024-03-25T08:02:07;12.20;99.90
10149;DHT22;5115;50.920;6.376;2024-03-25T08:04:33;12.80;99.90
10149;DHT22;5115;50.920;6.376;2024-03-25T08:06:58;13.60;99.90
10149;DHT22;5115;50.920;6.376;2024-03-25T08:09:24;14.00;99.90
10149;DHT22;5115;50.920;6.376;2024-03-25T08:11:49;14.50;99.90
10149;DHT22;5115;50.920;6.376;2024-03-25T08:14:15;15.30;99.90
10149;DHT22;5115;50.920;6.376;2024-03-25T08:16:41;15.30;99.90
10149;DHT22;5115;50.920;6.376;2024-03-25T08:19:06;15.40;99.90
10149;DHT22;5115;50.920;6.376;2024-03-25T08:21:32;15.50;99.90
10149;DHT22;5115;50.920;6.376;2024-03-25T08:23:57;15.30;99.90
10149;DHT22;5115;50.920;6.376;2024-03-25T08:26:23;15.50;99.90
10149;DHT22;5115;50.920;6.376;2024-03-25T08:28:48;15.60;99.90
10149;DHT22;5115;50.920;6.376;2024-03-25T08:31:15;15.60;99.90
10149;DHT22;5115;50.920;6.376;2024-03-25T08:33:40;15.90;99.90
10149;DHT22;5115;50.920;6.376;2024-03-25T08:36:06;16.10;99.90
10149;DHT22;5115;50.920;6.376;2024-03-25T08:38:31;16.20;99.90
10149;DHT22;5115;50.920;6.376;2024-03-25T08:40:57;16.50;99.90
10149;DHT22;5115;50.920;6.376;2024-03-25T08:43:22;16.50;99.90
10149;DHT22;5115;50.920;6.376;2024-03-25T08:45:48;16.50;99.90
10149;DHT22;5115;50.920;6.376;2024-03-25T08:48:13;16.60;99.90
10149;DHT22;5115;50.920;6.376;2024-03-25T08:50:39;16.70;99.90
10149;DHT22;5115;50.920;6.376;2024-03-25T08:53:05;16.70;99.90
10149;DHT22;5115;50.920;6.376;2024-03-25T08:55:31;16.90;99.90
10149;DHT22;5115;50.920;6.376;2024-03-25T08:57:57;17.30;99.90
10149;DHT22;5115;50.920;6.376;2024-03-25T09:00:24;17.80;99.90
10149;DHT22;5115;50.920;6.376;2024-03-25T09:02:50;18.10;99.90
10149;DHT22;5115;50.920;6.376;2024-03-25T09:05:15;18.40;99.90
10149;DHT22;5115;50.920;6.376;2024-03-25T09:07:49;18.70;99.90
10149;DHT22;5115;50.920;6.376;2024-03-25T09:10:18;18.60;99.90
10149;DHT22;5115;50.920;6.376;2024-03-25T09:13:02;18.70;99.90
10149;DHT22;5115;50.920;6.376;2024-03-25T09:15:29;18.70;99.90
10149;DHT22;5115;50.920;6.376;2024-03-25T09:17:54;18.80;99.90
10149;DHT22;5115;50.920;6.376;2024-03-25T09:20:20;18.80;99.90
10149;DHT22;5115;50.920;6.376;2024-03-25T09:22:46;18.90;99.90
10149;DHT22;5115;50.920;6.376;2024-03-25T09:25:15;19.60;99.90
10149;DHT22;5115;50.920;6.376;2024-03-25T09:27:45;19.20;99.90
10149;DHT22;5115;50.920;6.376;2024-03-25T09:30:11;18.90;99.90
10149;DHT22;5115;50.920;6.376;2024-03-25T09:32:37;19.00;99.90
10149;DHT22;5115;50.920;6.376;2024-03-25T09:35:03;19.00;99.90
10149;DHT22;5115;50.920;6.376;2024-03-25T09:37:29;19.20;99.90
10149;DHT22;5115;50.920;6.376;2024-03-25T09:39:54;19.20;99.90
10149;DHT22;5115;50.920;6.376;2024-03-25T09:42:26;18.90;99.90
10149;DHT22;5115;50.920;6.376;2024-03-25T09:44:56;18.40;99.90
10149;DHT22;5115;50.920;6.376;2024-03-25T09:47:22;17.90;99.90
10149;DHT22;5115;50.920;6.376;2024-03-25T09:49:49;17.70;99.90
10149;DHT22;5115;50.920;6.376;2024-03-25T09:52:15;18.30;99.90
10149;DHT22;5115;50.920;6.376;2024-03-25T09:54:41;17.80;99.90
10149;DHT22;5115;50.920;6.376;2024-03-25T09:57:08;17.50;99.90
10149;DHT22;5115;50.920;6.376;2024-03-25T09:59:34;17.10;99.90
10149;DHT22;5115;50.920;6.376;2024-03-25T10:02:01;17.00;99.90
10149;DHT22;5115;50.920;6.376;2024-03-25T10:04:27;17.10;99.90
10149;DHT22;5115;50.920;6.376;2024-03-25T10:06:52;16.70;99.90
10149;DHT22;5115;50.920;6.376;2024-03-25T10:09:22;16.30;99.90
10149;DHT22;5115;50.920;6.376;2024-03-25T10:11:51;16.70;99.90
10149;DHT22;5115;50.920;6.376;2024-03-25T10:14:17;16.20;99.90
10149;DHT22;5115;50.920;6.376;2024-03-25T10:16:43;16.50;99.90
10149;DHT22;5115;50.920;6.376;2024-03-25T10:19:09;16.90;99.90
10149;DHT22;5115;50.920;6.376;2024-03-25T10:21:35;16.90;99.90
10149;DHT22;5115;50.920;6.376;2024-03-25T10:24:01;17.20;99.90
10149;DHT22;5115;50.920;6.376;2024-03-25T10:26:30;16.50;99.90
10149;DHT22;5115;50.920;6.376;2024-03-25T10:29:06;16.70;99.90
10149;DHT22;5115;50.920;6.376;2024-03-25T10:31:33;16.70;99.90
10149;DHT22;5115;50.920;6.376;2024-03-25T10:33:58;16.70;99.90
10149;DHT22;5115;50.920;6.376;2024-03-25T10:36:24;16.90;99.90
10149;DHT22;5115;50.920;6.376;2024-03-25T10:38:57;16.90;99.90
10149;DHT22;5115;50.920;6.376;2024-03-25T10:41:28;17.40;99.90
10149;DHT22;5115;50.920;6.376;2024-03-25T10:43:55;17.60;99.90
10149;DHT22;5115;50.920;6.376;2024-03-25T10:46:22;17.20;99.90
10149;DHT22;5115;50.920;6.376;2024-03-25T10:49:02;17.40;99.90
10149;DHT22;5115;50.920;6.376;2024-03-25T10:51:29;16.90;99.90
10149;DHT22;5115;50.920;6.376;2024-03-25T10:53:57;17.00;99.90
10149;DHT22;5115;50.920;6.376;2024-03-25T10:56:23;16.70;99.90
10149;DHT22;5115;50.920;6.376;2024-03-25T10:58:49;16.70;99.90
10149;DHT22;5115;50.920;6.376;2024-03-25T11:01:19;17.10;99.90
10149;DHT22;5115;50.920;6.376;2024-03-25T11:03:46;16.70;99.90
10149;DHT22;5115;50.920;6.376;2024-03-25T11:06:13;16.60;99.90
10149;DHT22;5115;50.920;6.376;2024-03-25T11:08:39;16.80;99.90
10149;DHT22;5115;50.920;6.376;2024-03-25T11:11:07;16.80;99.90
10149;DHT22;5115;50.920;6.376;2024-03-25T11:13:33;16.60;99.90
10149;DHT22;5115;50.920;6.376;2024-03-25T11:15:59;16.40;99.90
10149;DHT22;5115;50.920;6.376;2024-03-25T11:18:26;16.40;99.90
10149;DHT22;5115;50.920;6.376;2024-03-25T11:21:01;16.40;99.90
10149;DHT22;5115;50.920;6.376;2024-03-25T11:23:26;16.40;99.90
10149;DHT22;5115;50.920;6.376;2024-03-25T11:26:00;16.40;99.90
10149;DHT22;5115;50.920;6.376;2024-03-25T11:28:29;16.50;99.90
10149;DHT22;5115;50.920;6.376;2024-03-25T11:30:55;16.40;99.90
10149;DHT22;5115;50.920;6.376;2024-03-25T11:33:21;16.50;99.90
10149;DHT22;5115;50.920;6.376;2024-03-25T11:35:48;16.80;99.90
10149;DHT22;5115;50.920;6.376;2024-03-25T11:38:14;16.80;99.90
10149;DHT22;5115;50.920;6.376;2024-03-25T11:40:42;16.80;99.90
10149;DHT22;5115;50.920;6.376;2024-03-25T11:43:08;16.70;99.90
10149;DHT22;5115;50.920;6.376;2024-03-25T11:45:34;16.40;99.90
10149;DHT22;5115;50.920;6.376;2024-03-25T11:47:59;16.70;99.90
10149;DHT22;5115;50.920;6.376;2024-03-25T11:50:25;16.90;99.90
10149;DHT22;5115;50.920;6.376;2024-03-25T11:52:50;16.70;99.30
10149;DHT22;5115;50.920;6.376;2024-03-25T11:55:17;16.10;99.70
10149;DHT22;5115;50.920;6.376;2024-03-25T11:57:43;16.20;99.90
10149;DHT22;5115;50.920;6.376;2024-03-25T12:00:09;16.20;99.80
10149;DHT22;5115;50.920;6.376;2024-03-25T12:02:43;16.40;99.50
10149;DHT22;5115;50.920;6.376;2024-03-25T12:05:11;15.90;99.50
10149;DHT22;5115;50.920;6.376;2024-03-25T12:07:36;16.00;99.90
10149;DHT22;5115;50.920;6.376;2024-03-25T12:10:02;16.00;99.90
10149;DHT22;5115;50.920;6.376;2024-03-25T12:12:47;16.20;99.60
10149;DHT22;5115;50.920;6.376;2024-03-25T12:15:13;16.00;99.90
10149;DHT22;5115;50.920;6.376;2024-03-25T12:17:38;16.10;99.90
10149;DHT22;5115;50.920;6.376;2024-03-25T12:20:05;16.00;99.90
10149;DHT22;5115;50.920;6.376;2024-03-25T12:22:31;15.80;99.70
10149;DHT22;5115;50.920;6.376;2024-03-25T12:24:59;15.60;99.80
10149;DHT22;5115;50.920;6.376;2024-03-25T12:27:25;15.10;99.50
10149;DHT22;5115;50.920;6.376;2024-03-25T12:30:01;14.90;99.90
10149;DHT22;5115;50.920;6.376;2024-03-25T12:32:31;14.70;99.90
10149;DHT22;5115;50.920;6.376;2024-03-25T12:34:58;15.00;99.90
10149;DHT22;5115;50.920;6.376;2024-03-25T12:37:26;15.20;99.90
10149;DHT22;5115;50.920;6.376;2024-03-25T12:39:52;15.20;99.90
10149;DHT22;5115;50.920;6.376;2024-03-25T12:42:18;15.00;99.90
10149;DHT22;5115;50.920;6.376;2024-03-25T12:44:44;14.80;99.90
10149;DHT22;5115;50.920;6.376;2024-03-25T12:47:10;14.20;99.90
10149;DHT22;5115;50.920;6.376;2024-03-25T12:49:35;14.00;99.90
10149;DHT22;5115;50.920;6.376;2024-03-25T12:52:05;14.20;99.90
10149;DHT22;5115;50.920;6.376;2024-03-25T12:54:31;14.10;99.90
10149;DHT22;5115;50.920;6.376;2024-03-25T12:56:56;14.10;99.90
10149;DHT22;5115;50.920;6.376;2024-03-25T12:59:22;13.90;99.90
10149;DHT22;5115;50.920;6.376;2024-03-25T13:01:47;14.10;99.90
10149;DHT22;5115;50.920;6.376;2024-03-25T13:04:13;14.20;99.90
10149;DHT22;5115;50.920;6.376;2024-03-25T13:06:39;14.50;99.90
10149;DHT22;5115;50.920;6.376;2024-03-25T13:09:04;14.50;99.90
10149;DHT22;5115;50.920;6.376;2024-03-25T13:11:30;14.10;99.90
10149;DHT22;5115;50.920;6.376;2024-03-25T13:13:55;14.10;99.90
10149;DHT22;5115;50.920;6.376;2024-03-25T13:16:21;14.20;99.90
10149;DHT22;5115;50.920;6.376;2024-03-25T13:18:46;13.70;99.90
10149;DHT22;5115;50.920;6.376;2024-03-25T13:21:12;14.00;99.90
10149;DHT22;5115;50.920;6.376;2024-03-25T13:23:37;14.10;99.90
10149;DHT22;5115;50.920;6.376;2024-03-25T13:26:03;13.80;99.90
10149;DHT22;5115;50.920;6.376;2024-03-25T13:28:29;14.00;99.90
10149;DHT22;5115;50.920;6.376;2024-03-25T13:30:54;14.00;99.90
10149;DHT22;5115;50.920;6.376;2024-03-25T13:33:20;14.00;99.90
10149;DHT22;5115;50.920;6.376;2024-03-25T13:35:45;13.60;99.90
10149;DHT22;5115;50.920;6.376;2024-03-25T13:38:12;13.30;99.90
10149;DHT22;5115;50.920;6.376;2024-03-25T13:40:38;13.40;99.90
10149;DHT22;5115;50.920;6.376;2024-03-25T13:43:03;13.20;99.90
10149;DHT22;5115;50.920;6.376;2024-03-25T13:45:30;13.30;99.90
10149;DHT22;5115;50.920;6.376;2024-03-25T13:47:56;13.40;99.90
10149;DHT22;5115;50.920;6.376;2024-03-25T13:50:21;13.70;99.90
10149;DHT22;5115;50.920;6.376;2024-03-25T13:52:48;13.70;99.90
10149;DHT22;5115;50.920;6.376;2024-03-25T13:55:13;13.80;99.90
10149;DHT22;5115;50.920;6.376;2024-03-25T13:57:39;13.60;99.90
10149;DHT22;5115;50.920;6.376;2024-03-25T14:00:05;13.50;99.90
10149;DHT22;5115;50.920;6.376;2024-03-25T14:02:33;13.60;99.90
10149;DHT22;5115;50.920;6.376;2024-03-25T14:05:01;13.70;99.90
10149;DHT22;5115;50.920;6.376;2024-03-25T14:07:27;13.60;99.90
10149;DHT22;5115;50.920;6.376;2024-03-25T14:09:52;13.50;99.90
10149;DHT22;5115;50.920;6.376;2024-03-25T14:12:18;13.40;99.90
10149;DHT22;5115;50.920;6.376;2024-03-25T14:14:44;13.30;99.90
10149;DHT22;5115;50.920;6.376;2024-03-25T14:17:09;13.40;99.90
10149;DHT22;5115;50.920;6.376;2024-03-25T14:19:35;13.60;99.90
10149;DHT22;5115;50.920;6.376;2024-03-25T14:22:00;13.60;99.90
10149;DHT22;5115;50.920;6.376;2024-03-25T14:24:25;13.70;99.90
10149;DHT22;5115;50.920;6.376;2024-03-25T14:26:51;13.70;99.90
10149;DHT22;5115;50.920;6.376;2024-03-25T14:29:17;13.90;99.90
10149;DHT22;5115;50.920;6.376;2024-03-25T14:31:42;13.90;99.90
10149;DHT22;5115;50.920;6.376;2024-03-25T14:34:08;14.00;99.90
10149;DHT22;5115;50.920;6.376;2024-03-25T14:36:34;14.20;99.90
10149;DHT22;5115;50.920;6.376;2024-03-25T14:39:01;14.00;99.90
10149;DHT22;5115;50.920;6.376;2024-03-25T14:41:26;13.90;99.90
10149;DHT22;5115;50.920;6.376;2024-03-25T14:43:52;13.90;99.90
10149;DHT22;5115;50.920;6.376;2024-03-25T14:46:17;13.60;99.90
10149;DHT22;5115;50.920;6.376;2024-03-25T14:48:43;13.70;99.90
10149;DHT22;5115;50.920;6.376;2024-03-25T14:51:09;13.60;99.90
10149;DHT22;5115;50.920;6.376;2024-03-25T14:53:35;13.50;99.90
10149;DHT22;5115;50.920;6.376;2024-03-25T14:56:00;13.50;99.90
10149;DHT22;5115;50.920;6.376;2024-03-25T14:58:26;13.50;99.90
10149;DHT22;5115;50.920;6.376;2024-03-25T15:00:52;13.50;99.90
10149;DHT22;5115;50.920;6.376;2024-03-25T15:03:18;12.80;99.90
10149;DHT22;5115;50.920;6.376;2024-03-25T15:05:43;13.70;99.90
10149;DHT22;5115;50.920;6.376;2024-03-25T15:08:09;13.70;99.40
10149;DHT22;5115;50.920;6.376;2024-03-25T15:10:35;13.50;98.60
10149;DHT22;5115;50.920;6.376;2024-03-25T15:13:01;13.40;98.50
10149;DHT22;5115;50.920;6.376;2024-03-25T15:15:27;13.40;99.90
10149;DHT22;5115;50.920;6.376;2024-03-25T15:17:53;13.60;99.90
10149;DHT22;5115;50.920;6.376;2024-03-25T15:20:18;13.60;98.70
10149;DHT22;5115;50.920;6.376;2024-03-25T15:22:44;13.50;98.70
10149;DHT22;5115;50.920;6.376;2024-03-25T15:25:10;13.40;98.80
10149;DHT22;5115;50.920;6.376;2024-03-25T15:27:36;13.40;98.90
10149;DHT22;5115;50.920;6.376;2024-03-25T15:30:03;13.30;98.50
10149;DHT22;5115;50.920;6.376;2024-03-25T15:32:29;13.20;99.00
10149;DHT22;5115;50.920;6.376;2024-03-25T15:34:54;13.10;98.40
10149;DHT22;5115;50.920;6.376;2024-03-25T15:37:20;13.00;98.40
10149;DHT22;5115;50.920;6.376;2024-03-25T15:39:46;13.20;99.10
10149;DHT22;5115;50.920;6.376;2024-03-25T15:42:12;13.30;98.90
10149;DHT22;5115;50.920;6.376;2024-03-25T15:44:37;13.30;99.20
10149;DHT22;5115;50.920;6.376;2024-03-25T15:47:03;13.20;99.80